Carbonton, North Carolina
Current Conditions -  °F | °C
As of 9:15 AM on Sunday 21 Dec 2014 (Local Time) from KTTA Reporting Station
Overcast Overcast  
Wind Chill: 41°   Ceiling: 3200
Heat Index: 41°   Visibility: 10mi
Dew Point: 39°   Wind: 3mph
Humidity: 92%   Direction: 20°NNE
Pressure: 30.31"   Gusts: NA
Location:  35.493°N, 79.1765°W
Report Text: KTTA 211415Z AUTO 02003KT 10SM OVC032 05/04 A3031 RMK AO2 T00490037
Loading
Personal Weather Stations






























Interactive Weather Map New forecast layout! Learn more

10-Day Weather Forecast

Advertisements
Track Severe Weather on mobile